sensor_id;sensor_type;location;lat;lon;timestamp;pressure;altitude;pressure_sealevel;temperature;humidity
15750;BME280;7976;52.526;13.326;2023-06-10T00:01:41;101162.59;;;18.15;74.71
15750;BME280;7976;52.526;13.326;2023-06-10T00:04:08;101149.06;;;18.19;74.56
15750;BME280;7976;52.526;13.326;2023-06-10T00:06:35;101153.59;;;18.17;74.36
15750;BME280;7976;52.526;13.326;2023-06-10T00:09:04;101154.47;;;18.18;74.48
15750;BME280;7976;52.526;13.326;2023-06-10T00:11:31;101159.19;;;18.13;74.58
15750;BME280;7976;52.526;13.326;2023-06-10T00:14:00;101159.19;;;18.13;74.86
15750;BME280;7976;52.526;13.326;2023-06-10T00:16:27;101146.97;;;18.10;74.78
15750;BME280;7976;52.526;13.326;2023-06-10T00:18:54;101153.22;;;18.09;74.66
15750;BME280;7976;52.526;13.326;2023-06-10T00:21:26;101159.59;;;18.07;74.59
15750;BME280;7976;52.526;13.326;2023-06-10T00:23:53;101155.31;;;18.04;74.90
15750;BME280;7976;52.526;13.326;2023-06-10T00:28:48;101145.47;;;18.06;74.74
15750;BME280;7976;52.526;13.326;2023-06-10T00:31:16;101142.50;;;17.97;75.02
15750;BME280;7976;52.526;13.326;2023-06-10T00:33:43;101152.53;;;17.92;75.36
15750;BME280;7976;52.526;13.326;2023-06-10T00:36:10;101149.59;;;17.82;75.33
15750;BME280;7976;52.526;13.326;2023-06-10T00:38:37;101134.94;;;17.77;75.98
15750;BME280;7976;52.526;13.326;2023-06-10T00:41:06;101135.78;;;17.77;75.98
15750;BME280;7976;52.526;13.326;2023-06-10T00:43:33;101147.44;;;17.75;75.93
15750;BME280;7976;52.526;13.326;2023-06-10T00:46:00;101154.97;;;17.67;76.32
15750;BME280;7976;52.526;13.326;2023-06-10T00:48:30;101156.28;;;17.60;76.61
15750;BME280;7976;52.526;13.326;2023-06-10T00:50:57;101146.72;;;17.57;76.72
15750;BME280;7976;52.526;13.326;2023-06-10T00:53:26;101155.44;;;17.59;76.83
15750;BME280;7976;52.526;13.326;2023-06-10T00:55:55;101144.66;;;17.62;76.77
15750;BME280;7976;52.526;13.326;2023-06-10T00:58:23;101145.22;;;17.67;76.72
15750;BME280;7976;52.526;13.326;2023-06-10T01:00:51;101143.72;;;17.63;76.57
15750;BME280;7976;52.526;13.326;2023-06-10T01:03:19;101150.41;;;17.55;76.71
15750;BME280;7976;52.526;13.326;2023-06-10T01:05:53;101146.66;;;17.43;77.34
15750;BME280;7976;52.526;13.326;2023-06-10T01:08:35;101150.06;;;17.45;77.28
15750;BME280;7976;52.526;13.326;2023-06-10T01:11:14;101160.53;;;17.48;77.31
15750;BME280;7976;52.526;13.326;2023-06-10T01:13:46;101151.81;;;17.46;77.39
15750;BME280;7976;52.526;13.326;2023-06-10T01:16:17;101167.59;;;17.47;77.33
15750;BME280;7976;52.526;13.326;2023-06-10T01:18:44;101159.66;;;17.47;77.40
15750;BME280;7976;52.526;13.326;2023-06-10T01:21:19;101159.81;;;17.44;77.36
15750;BME280;7976;52.526;13.326;2023-06-10T01:23:47;101166.97;;;17.42;77.63
15750;BME280;7976;52.526;13.326;2023-06-10T01:26:15;101162.97;;;17.35;77.37
15750;BME280;7976;52.526;13.326;2023-06-10T01:28:48;101164.47;;;17.25;77.83
15750;BME280;7976;52.526;13.326;2023-06-10T01:31:31;101167.47;;;17.19;78.31
15750;BME280;7976;52.526;13.326;2023-06-10T01:34:01;101162.09;;;17.21;78.62
15750;BME280;7976;52.526;13.326;2023-06-10T01:36:31;101167.00;;;17.27;78.32
15750;BME280;7976;52.526;13.326;2023-06-10T01:39:00;101169.47;;;17.30;78.36
15750;BME280;7976;52.526;13.326;2023-06-10T01:41:29;101161.44;;;17.31;77.96
15750;BME280;7976;52.526;13.326;2023-06-10T01:43:56;101161.53;;;17.30;78.00
15750;BME280;7976;52.526;13.326;2023-06-10T01:46:23;101158.22;;;17.26;78.25
15750;BME280;7976;52.526;13.326;2023-06-10T01:48:50;101169.16;;;17.20;78.34
15750;BME280;7976;52.526;13.326;2023-06-10T01:51:17;101169.69;;;17.11;78.50
15750;BME280;7976;52.526;13.326;2023-06-10T01:53:45;101163.75;;;17.08;78.95
15750;BME280;7976;52.526;13.326;2023-06-10T01:56:13;101169.09;;;17.06;79.05
15750;BME280;7976;52.526;13.326;2023-06-10T01:58:45;101175.31;;;17.05;79.14
15750;BME280;7976;52.526;13.326;2023-06-10T02:01:13;101172.00;;;17.02;78.97
15750;BME280;7976;52.526;13.326;2023-06-10T02:03:40;101168.00;;;16.95;79.28
15750;BME280;7976;52.526;13.326;2023-06-10T02:06:08;101173.38;;;16.93;79.61
15750;BME280;7976;52.526;13.326;2023-06-10T02:08:35;101162.78;;;16.93;79.63
15750;BME280;7976;52.526;13.326;2023-06-10T02:11:03;101167.91;;;16.96;79.80
15750;BME280;7976;52.526;13.326;2023-06-10T02:13:30;101169.91;;;16.93;79.66
15750;BME280;7976;52.526;13.326;2023-06-10T02:15:57;101169.94;;;16.91;79.68
15750;BME280;7976;52.526;13.326;2023-06-10T02:18:28;101171.59;;;16.94;79.64
15750;BME280;7976;52.526;13.326;2023-06-10T02:20:55;101170.72;;;16.93;79.52
15750;BME280;7976;52.526;13.326;2023-06-10T02:23:22;101179.53;;;16.94;79.84
15750;BME280;7976;52.526;13.326;2023-06-10T02:25:49;101178.47;;;16.96;79.64
15750;BME280;7976;52.526;13.326;2023-06-10T02:28:18;101183.53;;;17.01;79.21
15750;BME280;7976;52.526;13.326;2023-06-10T02:30:45;101176.44;;;17.01;79.31
15750;BME280;7976;52.526;13.326;2023-06-10T02:33:13;101180.22;;;16.97;79.18
15750;BME280;7976;52.526;13.326;2023-06-10T02:35:41;101175.09;;;16.94;79.51
15750;BME280;7976;52.526;13.326;2023-06-10T02:38:08;101179.53;;;16.94;79.57
15750;BME280;7976;52.526;13.326;2023-06-10T02:43:11;101171.78;;;16.91;79.40
15750;BME280;7976;52.526;13.326;2023-06-10T02:45:39;101174.59;;;16.88;79.68
15750;BME280;7976;52.526;13.326;2023-06-10T02:48:07;101175.59;;;16.85;79.74
15750;BME280;7976;52.526;13.326;2023-06-10T02:50:34;101175.69;;;16.84;79.86
15750;BME280;7976;52.526;13.326;2023-06-10T02:53:10;101179.88;;;16.88;79.81
15750;BME280;7976;52.526;13.326;2023-06-10T02:55:41;101179.59;;;16.92;79.86
15750;BME280;7976;52.526;13.326;2023-06-10T02:58:11;101174.22;;;16.94;79.59
15750;BME280;7976;52.526;13.326;2023-06-10T03:00:40;101179.03;;;16.87;79.74
15750;BME280;7976;52.526;13.326;2023-06-10T03:03:08;101182.75;;;16.83;79.73
15750;BME280;7976;52.526;13.326;2023-06-10T03:05:44;101183.13;;;16.77;80.23
15750;BME280;7976;52.526;13.326;2023-06-10T03:08:11;101183.97;;;16.78;80.41
15750;BME280;7976;52.526;13.326;2023-06-10T03:10:40;101174.22;;;16.78;80.21
15750;BME280;7976;52.526;13.326;2023-06-10T03:13:09;101177.13;;;16.74;80.47
15750;BME280;7976;52.526;13.326;2023-06-10T03:15:36;101181.38;;;16.76;80.24
15750;BME280;7976;52.526;13.326;2023-06-10T03:18:09;101183.63;;;16.84;80.21
15750;BME280;7976;52.526;13.326;2023-06-10T03:20:36;101183.44;;;16.87;80.05
15750;BME280;7976;52.526;13.326;2023-06-10T03:23:04;101194.69;;;16.90;79.69
15750;BME280;7976;52.526;13.326;2023-06-10T03:25:33;101184.31;;;16.87;79.83
15750;BME280;7976;52.526;13.326;2023-06-10T03:28:00;101177.13;;;16.74;79.83
15750;BME280;7976;52.526;13.326;2023-06-10T03:30:28;101178.59;;;16.64;80.65
15750;BME280;7976;52.526;13.326;2023-06-10T03:32:55;101187.19;;;16.67;80.78
15750;BME280;7976;52.526;13.326;2023-06-10T03:35:26;101189.50;;;16.73;80.57
15750;BME280;7976;52.526;13.326;2023-06-10T03:37:53;101193.34;;;16.83;80.52
15750;BME280;7976;52.526;13.326;2023-06-10T03:40:20;101192.25;;;16.87;79.97
15750;BME280;7976;52.526;13.326;2023-06-10T03:42:47;101193.00;;;16.89;79.83
15750;BME280;7976;52.526;13.326;2023-06-10T03:45:16;101196.56;;;16.88;79.87
15750;BME280;7976;52.526;13.326;2023-06-10T03:47:45;101189.59;;;16.87;80.05
15750;BME280;7976;52.526;13.326;2023-06-10T03:50:14;101193.84;;;16.90;80.11
15750;BME280;7976;52.526;13.326;2023-06-10T03:52:44;101192.91;;;16.91;79.85
15750;BME280;7976;52.526;13.326;2023-06-10T03:55:13;101203.00;;;16.84;79.86
15750;BME280;7976;52.526;13.326;2023-06-10T03:57:44;101194.03;;;16.87;80.06
15750;BME280;7976;52.526;13.326;2023-06-10T04:00:12;101197.34;;;16.90;79.62
15750;BME280;7976;52.526;13.326;2023-06-10T04:02:42;101208.69;;;16.92;79.28
15750;BME280;7976;52.526;13.326;2023-06-10T04:05:21;101206.66;;;16.97;79.65
15750;BME280;7976;52.526;13.326;2023-06-10T04:07:49;101205.88;;;16.95;79.47
15750;BME280;7976;52.526;13.326;2023-06-10T04:10:16;101204.19;;;16.94;79.70
15750;BME280;7976;52.526;13.326;2023-06-10T04:12:44;101213.81;;;16.95;79.61
15750;BME280;7976;52.526;13.326;2023-06-10T04:15:11;101204.94;;;16.96;79.48
15750;BME280;7976;52.526;13.326;2023-06-10T04:17:39;101208.34;;;16.98;79.51
15750;BME280;7976;52.526;13.326;2023-06-10T04:20:08;101205.53;;;17.01;79.49
15750;BME280;7976;52.526;13.326;2023-06-10T04:22:37;101199.63;;;16.96;79.22
15750;BME280;7976;52.526;13.326;2023-06-10T04:25:05;101208.53;;;16.95;79.48
15750;BME280;7976;52.526;13.326;2023-06-10T04:27:33;101203.22;;;16.95;79.70
15750;BME280;7976;52.526;13.326;2023-06-10T04:30:00;101202.56;;;16.92;79.85
15750;BME280;7976;52.526;13.326;2023-06-10T04:32:27;101207.06;;;16.90;79.81
15750;BME280;7976;52.526;13.326;2023-06-10T04:34:54;101212.34;;;16.90;79.87
15750;BME280;7976;52.526;13.326;2023-06-10T04:37:22;101211.94;;;16.97;80.04
15750;BME280;7976;52.526;13.326;2023-06-10T04:39:49;101211.59;;;17.03;79.88
15750;BME280;7976;52.526;13.326;2023-06-10T04:42:17;101209.72;;;17.05;79.67
15750;BME280;7976;52.526;13.326;2023-06-10T04:44:44;101222.53;;;17.13;79.20
15750;BME280;7976;52.526;13.326;2023-06-10T04:47:11;101221.13;;;17.21;79.13
15750;BME280;7976;52.526;13.326;2023-06-10T04:49:38;101221.66;;;17.28;79.09
15750;BME280;7976;52.526;13.326;2023-06-10T04:52:06;101219.75;;;17.30;78.70
15750;BME280;7976;52.526;13.326;2023-06-10T04:54:37;101227.59;;;17.31;78.61
15750;BME280;7976;52.526;13.326;2023-06-10T04:57:05;101223.44;;;17.27;78.23
15750;BME280;7976;52.526;13.326;2023-06-10T04:59:34;101229.84;;;17.23;78.72
15750;BME280;7976;52.526;13.326;2023-06-10T05:02:03;101230.59;;;17.25;78.69
15750;BME280;7976;52.526;13.326;2023-06-10T05:04:31;101227.59;;;17.31;78.48
15750;BME280;7976;52.526;13.326;2023-06-10T05:06:58;101237.44;;;17.29;78.37
15750;BME280;7976;52.526;13.326;2023-06-10T05:09:24;101233.06;;;17.28;78.39
15750;BME280;7976;52.526;13.326;2023-06-10T05:11:51;101237.53;;;17.28;78.42
15750;BME280;7976;52.526;13.326;2023-06-10T05:14:19;101238.38;;;17.28;78.36
15750;BME280;7976;52.526;13.326;2023-06-10T05:16:48;101245.19;;;17.32;78.43
15750;BME280;7976;52.526;13.326;2023-06-10T05:19:14;101240.69;;;17.34;78.22
15750;BME280;7976;52.526;13.326;2023-06-10T05:21:44;101245.97;;;17.34;78.32
15750;BME280;7976;52.526;13.326;2023-06-10T05:24:11;101237.16;;;17.34;78.43
15750;BME280;7976;52.526;13.326;2023-06-10T05:26:38;101244.84;;;17.38;78.14
15750;BME280;7976;52.526;13.326;2023-06-10T05:29:05;101246.72;;;17.36;78.17
15750;BME280;7976;52.526;13.326;2023-06-10T05:31:32;101249.13;;;17.41;78.30
15750;BME280;7976;52.526;13.326;2023-06-10T05:34:00;101245.22;;;17.48;78.03
15750;BME280;7976;52.526;13.326;2023-06-10T05:36:27;101249.28;;;17.53;77.82
15750;BME280;7976;52.526;13.326;2023-06-10T05:38:54;101251.59;;;17.60;77.84
15750;BME280;7976;52.526;13.326;2023-06-10T05:41:21;101250.13;;;17.70;77.73
15750;BME280;7976;52.526;13.326;2023-06-10T05:43:48;101244.28;;;17.79;77.40
15750;BME280;7976;52.526;13.326;2023-06-10T05:46:15;101246.88;;;17.94;76.92
15750;BME280;7976;52.526;13.326;2023-06-10T05:48:42;101246.06;;;18.08;76.56
15750;BME280;7976;52.526;13.326;2023-06-10T05:51:10;101237.94;;;18.25;76.24
15750;BME280;7976;52.526;13.326;2023-06-10T05:53:37;101247.56;;;18.41;75.16
15750;BME280;7976;52.526;13.326;2023-06-10T05:56:05;101242.72;;;18.62;75.08
15750;BME280;7976;52.526;13.326;2023-06-10T05:58:32;101233.72;;;18.79;74.14
15750;BME280;7976;52.526;13.326;2023-06-10T06:00:59;101240.97;;;18.89;73.90
15750;BME280;7976;52.526;13.326;2023-06-10T06:03:25;101245.16;;;18.93;73.21
15750;BME280;7976;52.526;13.326;2023-06-10T06:05:54;101244.84;;;18.98;73.23
15750;BME280;7976;52.526;13.326;2023-06-10T06:08:22;101236.78;;;18.99;73.07
15750;BME280;7976;52.526;13.326;2023-06-10T06:10:50;101249.03;;;19.02;73.08
15750;BME280;7976;52.526;13.326;2023-06-10T06:13:16;101250.81;;;19.01;72.87
15750;BME280;7976;52.526;13.326;2023-06-10T06:15:43;101256.13;;;19.01;73.06
15750;BME280;7976;52.526;13.326;2023-06-10T06:18:10;101253.38;;;19.03;72.94
15750;BME280;7976;52.526;13.326;2023-06-10T06:20:37;101254.03;;;19.06;72.74
15750;BME280;7976;52.526;13.326;2023-06-10T06:23:04;101259.88;;;19.11;72.93
15750;BME280;7976;52.526;13.326;2023-06-10T06:25:32;101261.22;;;19.18;72.86
15750;BME280;7976;52.526;13.326;2023-06-10T06:27:59;101260.81;;;19.24;72.57
15750;BME280;7976;52.526;13.326;2023-06-10T06:30:26;101266.97;;;19.39;72.40
15750;BME280;7976;52.526;13.326;2023-06-10T06:32:53;101262.34;;;19.55;71.52
15750;BME280;7976;52.526;13.326;2023-06-10T06:35:20;101269.84;;;19.62;71.52
15750;BME280;7976;52.526;13.326;2023-06-10T06:37:47;101272.38;;;19.64;70.87
15750;BME280;7976;52.526;13.326;2023-06-10T06:40:19;101272.28;;;19.65;70.91
15750;BME280;7976;52.526;13.326;2023-06-10T06:42:47;101269.63;;;19.65;71.01
15750;BME280;7976;52.526;13.326;2023-06-10T06:45:37;101280.03;;;19.68;71.04
15750;BME280;7976;52.526;13.326;2023-06-10T06:48:05;101275.28;;;19.73;70.42
15750;BME280;7976;52.526;13.326;2023-06-10T06:50:32;101280.91;;;19.81;70.55
15750;BME280;7976;52.526;13.326;2023-06-10T06:52:59;101279.88;;;19.84;70.23
15750;BME280;7976;52.526;13.326;2023-06-10T06:55:25;101286.22;;;19.81;70.23
15750;BME280;7976;52.526;13.326;2023-06-10T06:57:54;101286.22;;;19.81;70.19
15750;BME280;7976;52.526;13.326;2023-06-10T07:00:21;101286.03;;;19.84;70.13
15750;BME280;7976;52.526;13.326;2023-06-10T07:02:48;101291.34;;;19.84;70.05
15750;BME280;7976;52.526;13.326;2023-06-10T07:05:15;101289.44;;;19.86;70.07
15750;BME280;7976;52.526;13.326;2023-06-10T07:07:43;101290.19;;;19.88;69.97
15750;BME280;7976;52.526;13.326;2023-06-10T07:10:09;101299.84;;;19.89;69.97
15750;BME280;7976;52.526;13.326;2023-06-10T07:12:36;101298.50;;;19.96;69.92
15750;BME280;7976;52.526;13.326;2023-06-10T07:15:06;101300.88;;;20.14;69.72
15750;BME280;7976;52.526;13.326;2023-06-10T07:17:33;101299.25;;;20.38;69.23
15750;BME280;7976;52.526;13.326;2023-06-10T07:20:00;101291.59;;;20.71;68.29
15750;BME280;7976;52.526;13.326;2023-06-10T07:22:27;101290.38;;;21.00;67.73
15750;BME280;7976;52.526;13.326;2023-06-10T07:24:54;101294.59;;;21.15;66.66
15750;BME280;7976;52.526;13.326;2023-06-10T07:27:21;101291.06;;;21.27;66.53
15750;BME280;7976;52.526;13.326;2023-06-10T07:29:48;101296.16;;;21.30;65.80
15750;BME280;7976;52.526;13.326;2023-06-10T07:32:16;101302.00;;;21.35;65.67
15750;BME280;7976;52.526;13.326;2023-06-10T07:34:45;101309.47;;;21.43;65.29
15750;BME280;7976;52.526;13.326;2023-06-10T07:37:12;101302.50;;;21.53;65.31
15750;BME280;7976;52.526;13.326;2023-06-10T07:39:39;101307.56;;;21.68;64.87
15750;BME280;7976;52.526;13.326;2023-06-10T07:42:07;101317.09;;;21.83;64.46
15750;BME280;7976;52.526;13.326;2023-06-10T07:44:34;101312.78;;;21.93;64.32
15750;BME280;7976;52.526;13.326;2023-06-10T07:47:00;101319.41;;;22.11;64.23
15750;BME280;7976;52.526;13.326;2023-06-10T07:49:29;101307.69;;;22.25;63.14
15750;BME280;7976;52.526;13.326;2023-06-10T07:51:56;101310.97;;;22.39;63.08
15750;BME280;7976;52.526;13.326;2023-06-10T07:54:23;101314.88;;;22.47;62.27
15750;BME280;7976;52.526;13.326;2023-06-10T07:56:50;101312.47;;;22.44;62.51
15750;BME280;7976;52.526;13.326;2023-06-10T07:59:18;101315.09;;;22.32;62.49
15750;BME280;7976;52.526;13.326;2023-06-10T08:01:45;101311.41;;;22.22;63.09
15750;BME280;7976;52.526;13.326;2023-06-10T08:04:12;101309.34;;;22.15;63.44
15750;BME280;7976;52.526;13.326;2023-06-10T08:06:40;101313.19;;;22.11;63.47
15750;BME280;7976;52.526;13.326;2023-06-10T08:09:07;101310.28;;;22.03;63.80
15750;BME280;7976;52.526;13.326;2023-06-10T08:11:34;101315.84;;;22.00;63.95
15750;BME280;7976;52.526;13.326;2023-06-10T08:14:01;101316.91;;;21.97;64.22
15750;BME280;7976;52.526;13.326;2023-06-10T08:16:28;101311.97;;;22.04;63.66
15750;BME280;7976;52.526;13.326;2023-06-10T08:18:55;101324.25;;;22.17;63.58
15750;BME280;7976;52.526;13.326;2023-06-10T08:21:21;101318.00;;;22.40;63.09
15750;BME280;7976;52.526;13.326;2023-06-10T08:23:52;101322.81;;;22.59;62.29
15750;BME280;7976;52.526;13.326;2023-06-10T08:26:20;101321.00;;;22.71;61.91
15750;BME280;7976;52.526;13.326;2023-06-10T08:28:46;101328.31;;;22.80;61.31
15750;BME280;7976;52.526;13.326;2023-06-10T08:31:14;101328.91;;;22.83;61.44
15750;BME280;7976;52.526;13.326;2023-06-10T08:33:42;101324.78;;;22.90;61.24
15750;BME280;7976;52.526;13.326;2023-06-10T08:36:09;101330.13;;;23.12;60.96
15750;BME280;7976;52.526;13.326;2023-06-10T08:38:35;101318.59;;;23.34;60.29
15750;BME280;7976;52.526;13.326;2023-06-10T08:41:06;101330.94;;;23.57;60.21
15750;BME280;7976;52.526;13.326;2023-06-10T08:43:39;101330.88;;;23.79;59.63
15750;BME280;7976;52.526;13.326;2023-06-10T08:46:09;101332.56;;;23.80;59.26
15750;BME280;7976;52.526;13.326;2023-06-10T08:48:43;101327.69;;;23.85;59.18
15750;BME280;7976;52.526;13.326;2023-06-10T08:51:10;101336.41;;;23.98;58.39
15750;BME280;7976;52.526;13.326;2023-06-10T08:53:46;101335.69;;;23.96;58.55
15750;BME280;7976;52.526;13.326;2023-06-10T08:56:17;101342.53;;;23.89;58.77
15750;BME280;7976;52.526;13.326;2023-06-10T08:58:45;101331.84;;;23.78;58.57
15750;BME280;7976;52.526;13.326;2023-06-10T09:01:12;101333.56;;;23.79;59.04
15750;BME280;7976;52.526;13.326;2023-06-10T09:03:41;101339.25;;;23.86;58.91
15750;BME280;7976;52.526;13.326;2023-06-10T09:06:09;101336.97;;;23.81;59.32
15750;BME280;7976;52.526;13.326;2023-06-10T09:08:37;101330.16;;;23.77;59.01
15750;BME280;7976;52.526;13.326;2023-06-10T09:11:05;101328.00;;;23.71;58.68
15750;BME280;7976;52.526;13.326;2023-06-10T09:13:34;101336.50;;;23.65;58.91
15750;BME280;7976;52.526;13.326;2023-06-10T09:16:01;101333.13;;;23.52;58.90
15750;BME280;7976;52.526;13.326;2023-06-10T09:18:30;101335.00;;;23.40;59.20
15750;BME280;7976;52.526;13.326;2023-06-10T09:20:57;101331.50;;;23.29;60.11
15750;BME280;7976;52.526;13.326;2023-06-10T09:23:25;101336.56;;;23.21;59.92
15750;BME280;7976;52.526;13.326;2023-06-10T09:25:57;101338.50;;;23.19;60.39
15750;BME280;7976;52.526;13.326;2023-06-10T09:28:24;101339.97;;;23.12;60.72
15750;BME280;7976;52.526;13.326;2023-06-10T09:31:04;101338.50;;;23.08;60.95
15750;BME280;7976;52.526;13.326;2023-06-10T09:33:33;101340.69;;;23.03;60.61
15750;BME280;7976;52.526;13.326;2023-06-10T09:36:03;101342.63;;;23.01;60.73
15750;BME280;7976;52.526;13.326;2023-06-10T09:38:32;101340.19;;;22.98;60.81
15750;BME280;7976;52.526;13.326;2023-06-10T09:40:59;101347.38;;;22.97;61.08
15750;BME280;7976;52.526;13.326;2023-06-10T09:43:40;101347.25;;;22.99;61.22
15750;BME280;7976;52.526;13.326;2023-06-10T09:46:15;101345.91;;;23.04;60.83
15750;BME280;7976;52.526;13.326;2023-06-10T09:48:42;101341.53;;;23.14;61.15
15750;BME280;7976;52.526;13.326;2023-06-10T09:51:10;101346.78;;;23.16;60.66
15750;BME280;7976;52.526;13.326;2023-06-10T09:53:37;101353.81;;;23.17;61.27
15750;BME280;7976;52.526;13.326;2023-06-10T09:56:04;101348.94;;;23.11;61.31
15750;BME280;7976;52.526;13.326;2023-06-10T09:58:37;101352.47;;;23.00;61.69
15750;BME280;7976;52.526;13.326;2023-06-10T10:01:11;101341.88;;;22.88;61.95
15750;BME280;7976;52.526;13.326;2023-06-10T10:03:45;101340.66;;;22.81;61.85
15750;BME280;7976;52.526;13.326;2023-06-10T10:06:14;101350.16;;;22.74;62.09
15750;BME280;7976;52.526;13.326;2023-06-10T10:08:41;101349.53;;;22.70;62.81
15750;BME280;7976;52.526;13.326;2023-06-10T10:11:09;101335.44;;;22.68;62.60
15750;BME280;7976;52.526;13.326;2023-06-10T10:13:37;101346.88;;;22.70;62.30
15750;BME280;7976;52.526;13.326;2023-06-10T10:16:11;101345.75;;;22.73;61.78
15750;BME280;7976;52.526;13.326;2023-06-10T10:18:41;101340.91;;;22.78;61.32
15750;BME280;7976;52.526;13.326;2023-06-10T10:21:13;101343.25;;;22.82;60.58
15750;BME280;7976;52.526;13.326;2023-06-10T10:23:53;101339.72;;;22.82;61.69
15750;BME280;7976;52.526;13.326;2023-06-10T10:26:21;101350.16;;;22.74;63.57
15750;BME280;7976;52.526;13.326;2023-06-10T10:29:01;101349.16;;;22.64;63.49
15750;BME280;7976;52.526;13.326;2023-06-10T10:31:34;101342.59;;;22.57;63.50
15750;BME280;7976;52.526;13.326;2023-06-10T10:34:07;101341.72;;;22.56;63.13
15750;BME280;7976;52.526;13.326;2023-06-10T10:36:36;101346.94;;;22.58;62.62
15750;BME280;7976;52.526;13.326;2023-06-10T10:39:05;101340.66;;;22.59;62.13
15750;BME280;7976;52.526;13.326;2023-06-10T10:41:33;101340.66;;;22.59;61.27
15750;BME280;7976;52.526;13.326;2023-06-10T10:44:01;101342.34;;;22.60;59.99
15750;BME280;7976;52.526;13.326;2023-06-10T10:46:42;101335.09;;;22.62;59.38
15750;BME280;7976;52.526;13.326;2023-06-10T10:49:12;101338.38;;;22.65;59.05
15750;BME280;7976;52.526;13.326;2023-06-10T10:51:55;101337.13;;;22.69;59.01
15750;BME280;7976;52.526;13.326;2023-06-10T10:54:29;101321.97;;;22.70;58.38
15750;BME280;7976;52.526;13.326;2023-06-10T10:57:13;101317.25;;;22.73;58.42
15750;BME280;7976;52.526;13.326;2023-06-10T10:59:53;101314.22;;;22.67;60.02
15750;BME280;7976;52.526;13.326;2023-06-10T11:02:40;101310.59;;;22.33;65.04
15750;BME280;7976;52.526;13.326;2023-06-10T11:05:10;101306.72;;;21.91;67.89
15750;BME280;7976;52.526;13.326;2023-06-10T11:07:37;101301.72;;;21.63;70.57
15750;BME280;7976;52.526;13.326;2023-06-10T11:10:08;101293.25;;;21.46;72.62
15750;BME280;7976;52.526;13.326;2023-06-10T11:12:52;101285.81;;;21.38;73.77
15750;BME280;7976;52.526;13.326;2023-06-10T11:15:22;101290.69;;;21.44;73.73
15750;BME280;7976;52.526;13.326;2023-06-10T11:18:15;101294.66;;;21.62;74.08
15750;BME280;7976;52.526;13.326;2023-06-10T11:20:51;101286.41;;;21.78;73.84
15750;BME280;7976;52.526;13.326;2023-06-10T11:23:35;101287.94;;;21.93;73.34
15750;BME280;7976;52.526;13.326;2023-06-10T11:26:29;101288.25;;;22.12;73.23
15750;BME280;7976;52.526;13.326;2023-06-10T11:29:17;101288.03;;;22.26;71.49
15750;BME280;7976;52.526;13.326;2023-06-10T11:31:50;101288.91;;;22.37;70.58
15750;BME280;7976;52.526;13.326;2023-06-10T11:34:25;101282.16;;;22.56;69.12
15750;BME280;7976;52.526;13.326;2023-06-10T11:36:53;101284.97;;;22.76;66.21
15750;BME280;7976;52.526;13.326;2023-06-10T11:39:22;101282.31;;;22.87;64.17
15750;BME280;7976;52.526;13.326;2023-06-10T11:41:51;101289.19;;;23.01;62.24
15750;BME280;7976;52.526;13.326;2023-06-10T11:44:19;101288.34;;;23.11;60.05
15750;BME280;7976;52.526;13.326;2023-06-10T11:46:48;101290.16;;;23.22;59.08
15750;BME280;7976;52.526;13.326;2023-06-10T11:49:17;101290.28;;;23.20;59.14
15750;BME280;7976;52.526;13.326;2023-06-10T11:51:45;101288.47;;;23.10;60.32
15750;BME280;7976;52.526;13.326;2023-06-10T11:54:17;101293.22;;;23.06;61.63
15750;BME280;7976;52.526;13.326;2023-06-10T11:56:45;101291.16;;;23.21;61.78
15750;BME280;7976;52.526;13.326;2023-06-10T11:59:12;101304.47;;;23.43;61.85
15750;BME280;7976;52.526;13.326;2023-06-10T12:01:43;101294.84;;;23.63;61.31
15750;BME280;7976;52.526;13.326;2023-06-10T12:04:13;101299.53;;;23.81;61.96
15750;BME280;7976;52.526;13.326;2023-06-10T12:06:45;101298.34;;;23.95;61.57
15750;BME280;7976;52.526;13.326;2023-06-10T12:09:18;101292.13;;;24.05;62.19
15750;BME280;7976;52.526;13.326;2023-06-10T12:11:48;101288.69;;;24.14;62.36
15750;BME280;7976;52.526;13.326;2023-06-10T12:14:15;101287.38;;;24.29;61.40
15750;BME280;7976;52.526;13.326;2023-06-10T12:16:48;101295.06;;;24.43;60.43
15750;BME280;7976;52.526;13.326;2023-06-10T12:19:15;101290.09;;;24.59;60.83
15750;BME280;7976;52.526;13.326;2023-06-10T12:21:45;101296.56;;;24.77;59.97
15750;BME280;7976;52.526;13.326;2023-06-10T12:24:12;101296.75;;;24.95;58.92
15750;BME280;7976;52.526;13.326;2023-06-10T12:26:42;101287.50;;;25.09;57.22
15750;BME280;7976;52.526;13.326;2023-06-10T12:29:21;101285.59;;;25.30;56.67
15750;BME280;7976;52.526;13.326;2023-06-10T12:32:01;101296.97;;;25.52;55.43
15750;BME280;7976;52.526;13.326;2023-06-10T12:34:37;101294.84;;;25.65;55.17
15750;BME280;7976;52.526;13.326;2023-06-10T12:37:10;101290.22;;;25.77;53.98
15750;BME280;7976;52.526;13.326;2023-06-10T12:39:40;101282.84;;;25.79;52.82
15750;BME280;7976;52.526;13.326;2023-06-10T12:42:09;101280.19;;;25.79;51.54
15750;BME280;7976;52.526;13.326;2023-06-10T12:44:40;101271.31;;;25.78;51.47
15750;BME280;7976;52.526;13.326;2023-06-10T12:47:09;101265.63;;;25.91;50.74
15750;BME280;7976;52.526;13.326;2023-06-10T12:49:38;101270.16;;;26.10;50.14
15750;BME280;7976;52.526;13.326;2023-06-10T12:52:07;101263.63;;;26.31;49.71
15750;BME280;7976;52.526;13.326;2023-06-10T12:54:34;101256.50;;;26.49;49.46
15750;BME280;7976;52.526;13.326;2023-06-10T12:57:02;101259.16;;;26.68;48.88
15750;BME280;7976;52.526;13.326;2023-06-10T12:59:28;101255.31;;;26.80;48.75
15750;BME280;7976;52.526;13.326;2023-06-10T13:01:57;101253.41;;;26.90;49.18
15750;BME280;7976;52.526;13.326;2023-06-10T13:04:24;101245.44;;;26.98;49.13
15750;BME280;7976;52.526;13.326;2023-06-10T13:06:51;101244.31;;;27.01;49.38